createdAt,value
2022-08-05T00:04:15.471Z,8.10
2022-08-05T00:06:43.245Z,6.00
2022-08-05T00:09:12.965Z,4.35
2022-08-05T00:11:49.202Z,5.43
2022-08-05T00:14:17.624Z,8.07
2022-08-05T00:16:52.103Z,7.15
2022-08-05T00:19:22.694Z,9.63
2022-08-05T00:21:50.385Z,8.50
2022-08-05T00:24:19.264Z,7.38
2022-08-05T00:26:52.927Z,11.15
2022-08-05T00:29:22.747Z,20.88
2022-08-05T00:32:12.596Z,11.45
2022-08-05T00:35:05.043Z,7.28
2022-08-05T00:37:35.756Z,13.73
2022-08-05T00:40:17.772Z,9.75
2022-08-05T00:42:53.497Z,13.90
2022-08-05T00:45:28.315Z,7.88
2022-08-05T00:48:08.332Z,10.25
2022-08-05T00:50:36.433Z,7.55
2022-08-05T00:53:03.555Z,7.65
2022-08-05T00:55:42.780Z,9.82
2022-08-05T00:58:16.745Z,10.30
2022-08-05T01:00:47.004Z,11.57
2022-08-05T01:03:23.003Z,12.98
2022-08-05T01:05:51.255Z,8.15
2022-08-05T01:08:40.188Z,10.20
2022-08-05T01:11:33.601Z,12.63
2022-08-05T01:14:12.043Z,14.68
2022-08-05T01:16:49.006Z,10.65
2022-08-05T01:19:18.479Z,10.23
2022-08-05T01:22:15.517Z,16.20
2022-08-05T01:25:07.784Z,10.15
2022-08-05T01:27:59.801Z,9.77
2022-08-05T01:30:34.023Z,10.93
2022-08-05T01:33:08.441Z,10.18
2022-08-05T01:35:51.153Z,8.95
2022-08-05T01:38:26.994Z,8.63
2022-08-05T01:40:58.334Z,8.93
2022-08-05T01:43:27.330Z,8.75
2022-08-05T01:45:57.073Z,9.63
2022-08-05T01:48:27.165Z,11.07
2022-08-05T01:53:54.794Z,9.20
2022-08-05T01:56:13.813Z,6.57
2022-08-05T01:59:06.522Z,9.13
2022-08-05T02:01:39.882Z,7.43
2022-08-05T02:04:10.216Z,8.00
2022-08-05T02:06:39.359Z,7.95
2022-08-05T02:09:07.394Z,8.60
2022-08-05T02:12:16.779Z,6.68
2022-08-05T02:14:48.160Z,7.07
2022-08-05T02:18:28.019Z,8.88
2022-08-05T02:20:22.135Z,7.22
2022-08-05T02:22:58.387Z,9.50
2022-08-05T02:25:33.176Z,6.95
2022-08-05T02:28:04.304Z,9.27
2022-08-05T02:30:51.707Z,6.82
2022-08-05T02:33:35.758Z,8.80
2022-08-05T02:36:09.469Z,8.88
2022-08-05T02:38:37.669Z,10.00
2022-08-05T02:41:17.040Z,8.32
2022-08-05T02:44:02.975Z,7.68
2022-08-05T02:46:53.484Z,7.20
2022-08-05T02:49:27.487Z,10.48
2022-08-05T02:52:09.892Z,8.00
2022-08-05T02:54:41.066Z,7.07
2022-08-05T02:58:11.990Z,9.10
2022-08-05T03:00:01.456Z,10.15
2022-08-05T03:02:33.783Z,7.90
2022-08-05T03:05:01.886Z,6.82
2022-08-05T03:07:59.212Z,9.35
2022-08-05T03:10:24.465Z,5.60
2022-08-05T03:12:52.956Z,7.50
2022-08-05T03:15:21.551Z,6.45
2022-08-05T03:17:54.022Z,9.65
2022-08-05T03:20:23.657Z,11.85
2022-08-05T03:22:52.062Z,11.52
2022-08-05T03:25:33.878Z,8.18
2022-08-05T03:28:08.786Z,7.03
2022-08-05T03:30:36.735Z,9.10
2022-08-05T03:33:07.318Z,7.30
2022-08-05T03:35:41.052Z,6.43
2022-08-05T03:38:10.968Z,7.97
2022-08-05T03:40:44.896Z,9.80
2022-08-05T03:43:58.825Z,11.25
2022-08-05T03:46:01.375Z,8.00
2022-08-05T03:48:29.680Z,8.95
2022-08-05T03:52:39.199Z,11.43
2022-08-05T03:55:07.010Z,9.02
2022-08-05T03:56:50.491Z,10.02
2022-08-05T03:59:26.101Z,8.65
2022-08-05T04:01:58.948Z,8.45
2022-08-05T04:04:29.205Z,10.73
2022-08-05T04:06:56.270Z,8.70
2022-08-05T04:09:26.353Z,11.93
2022-08-05T04:11:56.731Z,13.55
2022-08-05T04:14:29.800Z,14.75
2022-08-05T04:17:00.202Z,11.48
2022-08-05T04:19:29.229Z,19.15
2022-08-05T04:22:10.358Z,16.42
2022-08-05T04:24:44.398Z,14.43
2022-08-05T04:27:13.445Z,15.20
2022-08-05T04:29:40.611Z,11.43
2022-08-05T04:32:08.615Z,13.82
2022-08-05T04:34:42.715Z,12.20
2022-08-05T04:37:10.507Z,13.65
2022-08-05T04:39:37.720Z,12.45
2022-08-05T04:42:06.391Z,12.82
2022-08-05T04:44:33.382Z,12.90
2022-08-05T04:47:09.353Z,11.20
2022-08-05T04:49:38.807Z,12.88
2022-08-05T04:52:27.755Z,12.80
2022-08-05T04:54:57.180Z,10.45
2022-08-05T04:57:28.502Z,13.30
2022-08-05T04:59:56.625Z,12.82
2022-08-05T05:02:41.470Z,9.18
2022-08-05T05:05:16.546Z,8.90
2022-08-05T05:07:56.461Z,7.57
2022-08-05T05:10:33.864Z,8.35
2022-08-05T05:13:01.721Z,9.85
2022-08-05T05:15:56.370Z,6.07
2022-08-05T05:18:31.582Z,8.75
2022-08-05T05:21:01.994Z,8.90
2022-08-05T05:23:39.108Z,7.45
2022-08-05T05:26:16.893Z,6.47
2022-08-05T05:28:44.789Z,6.57
2022-08-05T05:31:12.228Z,8.07
2022-08-05T05:33:58.799Z,7.43
2022-08-05T05:36:28.641Z,6.18
2022-08-05T05:38:57.206Z,6.47
2022-08-05T05:41:24.281Z,7.20
2022-08-05T05:43:58.211Z,6.15
2022-08-05T05:46:27.606Z,5.38
2022-08-05T05:48:54.379Z,3.97
2022-08-05T05:51:23.291Z,8.75
2022-08-05T05:53:57.921Z,5.55
2022-08-05T05:56:31.914Z,4.75
2022-08-05T05:59:06.466Z,7.05
2022-08-05T06:01:39.449Z,8.07
2022-08-05T06:04:08.696Z,12.32
2022-08-05T06:06:47.781Z,9.18
2022-08-05T06:09:26.516Z,10.23
2022-08-05T06:12:04.891Z,9.55
2022-08-05T06:14:31.936Z,9.93
2022-08-05T06:17:02.103Z,11.02
2022-08-05T06:19:56.523Z,9.60
2022-08-05T06:22:33.736Z,7.30
2022-08-05T06:25:59.513Z,5.47
2022-08-05T06:28:10.839Z,3.97
2022-08-05T06:30:41.706Z,4.20
2022-08-05T06:33:10.037Z,4.53
2022-08-05T06:36:06.836Z,7.15
2022-08-05T06:38:35.632Z,5.15
2022-08-05T06:41:04.708Z,6.57
2022-08-05T06:43:57.903Z,6.18
2022-08-05T06:46:18.399Z,5.85
2022-08-05T06:48:55.760Z,5.35
2022-08-05T06:51:30.225Z,7.82
2022-08-05T06:53:59.388Z,6.25
2022-08-05T06:56:27.824Z,4.55
2022-08-05T06:58:55.579Z,6.10
2022-08-05T07:01:23.613Z,14.57
2022-08-05T07:03:59.055Z,11.27
2022-08-05T07:06:27.762Z,8.88
2022-08-05T07:08:55.507Z,6.78
2022-08-05T07:11:25.449Z,6.50
2022-08-05T07:14:20.126Z,11.52
2022-08-05T07:17:58.189Z,5.32
2022-08-05T07:22:36.133Z,7.50
2022-08-05T07:25:23.655Z,4.50
2022-08-05T07:27:57.127Z,5.05
2022-08-05T07:30:31.710Z,6.07
2022-08-05T07:32:59.208Z,6.40
2022-08-05T07:36:03.643Z,4.68
2022-08-05T07:38:32.071Z,6.72
2022-08-05T07:41:17.178Z,5.30
2022-08-05T07:43:46.553Z,4.82
2022-08-05T07:46:24.417Z,4.78
2022-08-05T07:49:02.385Z,4.15
2022-08-05T07:51:40.289Z,6.55
2022-08-05T07:54:15.994Z,5.22
2022-08-05T07:57:02.392Z,5.60
2022-08-05T07:59:39.973Z,4.78
2022-08-05T08:02:16.809Z,6.30
2022-08-05T08:04:45.997Z,5.15
2022-08-05T08:07:13.857Z,4.75
2022-08-05T08:09:40.705Z,4.68
2022-08-05T08:12:36.848Z,5.90
2022-08-05T08:14:54.415Z,5.32
2022-08-05T08:17:21.724Z,6.00
2022-08-05T08:20:44.087Z,4.55
2022-08-05T08:22:36.172Z,6.00
2022-08-05T08:25:03.974Z,4.90
2022-08-05T08:27:47.349Z,3.20
2022-08-05T08:30:18.991Z,4.25
2022-08-05T08:32:57.182Z,5.32
2022-08-05T08:35:26.609Z,6.03
2022-08-05T08:37:54.432Z,4.68
2022-08-05T08:40:23.815Z,4.18
2022-08-05T08:42:53.026Z,5.55
2022-08-05T08:45:26.738Z,4.03
2022-08-05T08:48:12.821Z,3.97
2022-08-05T08:51:03.455Z,3.67
2022-08-05T08:53:37.554Z,3.40
2022-08-05T08:56:07.372Z,3.75
2022-08-05T08:58:37.618Z,4.15
2022-08-05T09:01:15.732Z,4.57
2022-08-05T09:03:55.483Z,3.30
2022-08-05T09:06:28.194Z,4.22
2022-08-05T09:09:01.769Z,3.60
2022-08-05T09:11:52.649Z,4.00
2022-08-05T09:14:58.318Z,4.20
2022-08-05T09:17:09.546Z,3.38
2022-08-05T09:20:02.251Z,2.95
2022-08-05T09:22:31.893Z,3.40
2022-08-05T09:25:01.469Z,4.70
2022-08-05T09:28:05.496Z,2.92
2022-08-05T09:30:24.597Z,4.30
2022-08-05T09:32:53.499Z,3.20
2022-08-05T09:35:27.077Z,3.20
2022-08-05T09:38:16.825Z,2.75
2022-08-05T09:40:51.848Z,4.57
2022-08-05T09:43:41.192Z,3.13
2022-08-05T09:46:28.606Z,3.22
2022-08-05T09:49:07.532Z,4.32
2022-08-05T09:51:38.170Z,2.58
2022-08-05T09:54:08.559Z,4.50
2022-08-05T09:56:37.944Z,4.18
2022-08-05T09:59:17.049Z,3.03
2022-08-05T10:01:46.657Z,2.50
2022-08-05T10:04:16.102Z,3.70
2022-08-05T10:06:58.963Z,2.58
2022-08-05T10:09:28.141Z,3.10
2022-08-05T10:12:30.757Z,3.10
2022-08-05T10:15:20.279Z,2.55
2022-08-05T10:18:07.233Z,2.85
2022-08-05T10:20:35.507Z,3.97
2022-08-05T10:23:02.811Z,4.03
2022-08-05T10:25:30.387Z,3.72
2022-08-05T10:28:12.887Z,3.40
2022-08-05T10:32:48.526Z,2.67
2022-08-05T10:33:35.180Z,3.05
2022-08-05T10:36:04.501Z,3.88
2022-08-05T10:38:33.423Z,3.83
2022-08-05T10:41:15.468Z,3.63
2022-08-05T10:44:00.743Z,3.13
2022-08-05T10:46:54.287Z,3.03
2022-08-05T10:49:26.945Z,3.13
2022-08-05T10:52:03.263Z,3.58
2022-08-05T10:55:02.932Z,2.60
2022-08-05T10:57:32.027Z,3.30
2022-08-05T11:00:20.090Z,3.35
2022-08-05T11:03:23.557Z,3.00
2022-08-05T11:06:16.134Z,3.03
2022-08-05T11:09:32.114Z,3.13
2022-08-05T11:12:43.833Z,3.05
2022-08-05T11:16:00.011Z,2.95
2022-08-05T11:18:34.924Z,3.50
2022-08-05T11:21:11.445Z,2.70
2022-08-05T11:24:05.536Z,2.28
2022-08-05T11:26:43.450Z,2.70
2022-08-05T11:29:37.186Z,2.55
2022-08-05T11:32:25.029Z,4.40
2022-08-05T11:34:54.424Z,3.53
2022-08-05T11:38:30.691Z,3.70
2022-08-05T11:41:35.021Z,3.40
2022-08-05T11:44:07.400Z,3.08
2022-08-05T11:47:09.853Z,5.30
2022-08-05T11:49:34.295Z,4.63
2022-08-05T11:52:11.641Z,4.40
2022-08-05T11:54:40.384Z,3.95
2022-08-05T11:57:24.393Z,4.85
2022-08-05T11:59:53.359Z,3.83
2022-08-05T12:02:31.950Z,2.97
2022-08-05T12:05:07.360Z,3.55
2022-08-05T12:08:08.132Z,3.35
2022-08-05T12:10:43.482Z,3.83
2022-08-05T12:13:47.509Z,3.20
2022-08-05T12:16:17.722Z,4.40
2022-08-05T12:18:52.250Z,3.17
2022-08-05T12:21:29.995Z,4.28
2022-08-05T12:24:04.374Z,4.28
2022-08-05T12:26:43.827Z,3.10
2022-08-05T12:29:38.758Z,3.05
2022-08-05T12:32:07.601Z,3.95
2022-08-05T12:34:37.975Z,4.25
2022-08-05T12:37:21.538Z,5.35
2022-08-05T12:39:51.691Z,4.57
2022-08-05T12:42:20.787Z,5.13
2022-08-05T12:44:48.650Z,5.00
2022-08-05T12:47:28.786Z,4.47
2022-08-05T12:50:04.529Z,5.47
2022-08-05T12:52:42.294Z,6.63
2022-08-05T12:55:21.843Z,4.40
2022-08-05T12:58:39.016Z,4.25
2022-08-05T13:02:01.385Z,5.43
2022-08-05T13:03:32.224Z,5.97
2022-08-05T13:05:59.836Z,6.43
2022-08-05T13:08:32.275Z,5.93
2022-08-05T13:11:01.171Z,10.82
2022-08-05T13:14:06.466Z,10.30
2022-08-05T13:16:17.184Z,6.55
2022-08-05T13:18:57.651Z,4.50
2022-08-05T13:21:28.531Z,4.88
2022-08-05T13:24:06.263Z,7.63
2022-08-05T13:29:02.944Z,7.72
2022-08-05T13:31:34.240Z,4.60
2022-08-05T13:34:20.956Z,6.35
2022-08-05T13:36:52.918Z,4.75
2022-08-05T13:39:24.305Z,5.10
2022-08-05T13:42:07.015Z,4.03
2022-08-05T13:44:34.769Z,5.22
2022-08-05T13:47:08.829Z,3.97
2022-08-05T13:49:36.798Z,7.82
2022-08-05T13:52:20.381Z,8.13
2022-08-05T13:54:57.453Z,6.22
2022-08-05T13:57:27.797Z,4.38
2022-08-05T14:00:14.746Z,5.93
2022-08-05T14:02:42.839Z,3.35
2022-08-05T14:05:15.358Z,5.15
2022-08-05T14:07:59.871Z,5.82
2022-08-05T14:10:32.939Z,3.85
2022-08-05T14:13:00.012Z,5.85
2022-08-05T14:16:06.075Z,5.85
2022-08-05T14:18:17.584Z,8.32
2022-08-05T14:20:49.067Z,8.27
2022-08-05T14:23:25.932Z,5.43
2022-08-05T14:25:58.109Z,5.50
2022-08-05T14:28:30.525Z,4.95
2022-08-05T14:30:59.567Z,4.00
2022-08-05T14:33:27.845Z,4.78
2022-08-05T14:36:14.626Z,4.05
2022-08-05T14:38:42.008Z,4.00
2022-08-05T14:41:08.802Z,5.90
2022-08-05T14:44:01.976Z,4.15
2022-08-05T14:46:28.219Z,5.78
2022-08-05T14:49:06.681Z,4.20
2022-08-05T14:51:36.162Z,5.68
2022-08-05T14:54:26.619Z,4.03
2022-08-05T14:56:51.865Z,10.93
2022-08-05T14:59:22.001Z,3.80
2022-08-05T15:01:49.959Z,3.78
2022-08-05T15:04:22.396Z,4.60
2022-08-05T15:06:52.913Z,3.92
2022-08-05T15:09:54.257Z,3.92
2022-08-05T15:12:09.499Z,3.78
2022-08-05T15:14:48.025Z,3.63
2022-08-05T15:17:46.405Z,4.05
2022-08-05T15:20:05.992Z,6.32
2022-08-05T15:22:32.839Z,5.82
2022-08-05T15:25:00.487Z,5.03
2022-08-05T15:27:38.778Z,4.40
2022-08-05T15:30:10.945Z,3.80
2022-08-05T15:35:10.607Z,4.22
2022-08-05T15:38:34.199Z,3.72
2022-08-05T15:40:59.683Z,5.32
2022-08-05T15:43:19.832Z,3.65
2022-08-05T15:46:00.366Z,5.38
2022-08-05T15:48:28.699Z,4.93
2022-08-05T15:50:56.451Z,4.97
2022-08-05T15:53:23.593Z,4.50
2022-08-05T15:56:02.818Z,4.35
2022-08-05T15:58:35.471Z,4.72
2022-08-05T16:01:16.699Z,5.13
2022-08-05T16:03:50.483Z,6.32
2022-08-05T16:06:19.634Z,5.75
2022-08-05T16:08:47.822Z,10.82
2022-08-05T16:11:17.296Z,8.50
2022-08-05T16:13:45.566Z,6.68
2022-08-05T16:16:12.338Z,5.80
2022-08-05T16:18:51.730Z,7.43
2022-08-05T16:21:20.826Z,9.43
2022-08-05T16:24:07.630Z,8.02
2022-08-05T16:26:54.908Z,9.15
2022-08-05T16:29:23.181Z,12.10
2022-08-05T16:31:56.263Z,9.40
2022-08-05T16:34:25.501Z,11.75
2022-08-05T16:36:53.682Z,9.90
2022-08-05T16:39:20.852Z,10.63
2022-08-05T16:42:15.338Z,12.88
2022-08-05T16:44:34.892Z,11.48
2022-08-05T16:47:04.821Z,13.07
2022-08-05T16:49:31.685Z,10.90
2022-08-05T16:51:58.472Z,12.48
2022-08-05T16:54:31.884Z,9.70
2022-08-05T16:57:00.131Z,11.00
2022-08-05T16:59:30.675Z,11.57
2022-08-05T17:01:57.826Z,13.27
2022-08-05T17:04:28.224Z,13.73
2022-08-05T17:07:03.497Z,12.88
2022-08-05T17:09:57.187Z,13.00
2022-08-05T17:12:50.647Z,14.70
2022-08-05T17:15:15.374Z,15.18
2022-08-05T17:17:43.977Z,12.27
2022-08-05T17:20:12.176Z,12.15
2022-08-05T17:22:41.680Z,11.90
2022-08-05T17:25:09.588Z,9.27
2022-08-05T17:27:49.273Z,11.97
2022-08-05T17:30:28.187Z,10.70
2022-08-05T17:32:55.915Z,10.63
2022-08-05T17:35:22.792Z,11.10
2022-08-05T17:37:50.480Z,11.38
2022-08-05T17:40:18.558Z,10.50
2022-08-05T17:42:50.960Z,12.57
2022-08-05T17:45:21.248Z,10.80
2022-08-05T17:47:55.831Z,9.50
2022-08-05T17:50:28.190Z,12.13
2022-08-05T17:52:56.834Z,10.60
2022-08-05T17:55:27.278Z,8.95
2022-08-05T17:58:01.984Z,10.52
2022-08-05T18:00:29.801Z,9.38
2022-08-05T18:02:57.334Z,8.60
2022-08-05T18:05:27.923Z,8.38
2022-08-05T18:07:56.828Z,9.55
2022-08-05T18:10:23.923Z,7.53
2022-08-05T18:12:51.276Z,6.57
2022-08-05T18:15:18.278Z,7.30
2022-08-05T18:18:01.655Z,7.22
2022-08-05T18:20:32.558Z,7.85
2022-08-05T18:23:11.230Z,6.75
2022-08-05T18:25:45.369Z,6.53
2022-08-05T18:28:16.267Z,6.57
2022-08-05T18:30:51.387Z,6.28
2022-08-05T18:33:23.057Z,7.97
2022-08-05T18:36:05.205Z,6.18
2022-08-05T18:38:37.026Z,5.90
2022-08-05T18:41:53.374Z,9.05
2022-08-05T18:43:52.730Z,5.85
2022-08-05T18:46:20.585Z,5.85
2022-08-05T18:48:53.809Z,5.88
2022-08-05T18:52:04.016Z,4.90
2022-08-05T18:54:30.871Z,4.22
2022-08-05T18:56:59.677Z,4.13
2022-08-05T18:59:43.211Z,4.13
2022-08-05T19:02:36.510Z,10.27
2022-08-05T19:06:05.594Z,4.95
2022-08-05T19:07:57.515Z,6.00
2022-08-05T19:10:28.418Z,3.83
2022-08-05T19:12:57.053Z,3.00
2022-08-05T19:15:57.512Z,4.50
2022-08-05T19:18:20.878Z,2.80
2022-08-05T19:20:53.570Z,4.32
2022-08-05T19:24:03.726Z,3.70
2022-08-05T19:26:09.289Z,4.13
2022-08-05T19:28:42.067Z,5.90
2022-08-05T19:31:13.615Z,3.35
2022-08-05T19:33:48.642Z,5.95
2022-08-05T19:36:29.260Z,6.78
2022-08-05T19:38:58.781Z,4.25
2022-08-05T19:42:05.427Z,5.78
2022-08-05T19:44:15.505Z,3.92
2022-08-05T19:46:43.727Z,6.72
2022-08-05T19:49:16.371Z,4.00
2022-08-05T19:52:04.616Z,3.60
2022-08-05T19:54:31.886Z,3.45
2022-08-05T19:57:02.395Z,2.90
2022-08-05T19:59:56.151Z,3.37
2022-08-05T20:02:17.929Z,4.47
2022-08-05T20:04:46.230Z,4.22
2022-08-05T20:07:15.487Z,4.82
2022-08-05T20:09:54.909Z,4.68
2022-08-05T20:12:24.856Z,3.00
2022-08-05T20:14:53.055Z,3.17
2022-08-05T20:17:23.487Z,2.90
2022-08-05T20:19:56.891Z,3.08
2022-08-05T20:22:27.113Z,3.88
2022-08-05T20:24:55.774Z,4.28
2022-08-05T20:27:26.377Z,2.85
2022-08-05T20:29:58.556Z,3.33
2022-08-05T20:32:27.141Z,3.53
2022-08-05T20:34:54.884Z,4.75
2022-08-05T20:38:06.639Z,3.28
2022-08-05T20:40:09.470Z,2.97
2022-08-05T20:42:36.659Z,2.70
2022-08-05T20:45:05.231Z,3.05
2022-08-05T20:47:32.824Z,3.42
2022-08-05T20:50:02.045Z,2.80
2022-08-05T20:52:30.197Z,2.90
2022-08-05T20:55:16.102Z,2.97
2022-08-05T20:57:44.983Z,3.20
2022-08-05T21:00:41.006Z,2.65
2022-08-05T21:03:06.965Z,3.08
2022-08-05T21:05:48.214Z,2.80
2022-08-05T21:08:26.898Z,2.65
2022-08-05T21:11:00.532Z,2.80
2022-08-05T21:13:48.119Z,3.03
2022-08-05T21:16:19.166Z,2.47
2022-08-05T21:18:46.380Z,3.40
2022-08-05T21:21:14.632Z,2.47
2022-08-05T21:23:42.457Z,3.35
2022-08-05T21:26:12.410Z,2.63
2022-08-05T21:28:47.682Z,3.65
2022-08-05T21:31:20.420Z,3.03
2022-08-05T21:33:49.406Z,5.22
2022-08-05T21:36:27.525Z,4.22
2022-08-05T21:38:57.041Z,3.50
2022-08-05T21:41:25.990Z,2.88
2022-08-05T21:44:03.500Z,2.75
2022-08-05T21:46:34.631Z,2.90
2022-08-05T21:49:07.095Z,3.38
2022-08-05T21:52:22.373Z,3.05
2022-08-05T21:54:27.809Z,2.50
2022-08-05T21:57:15.456Z,2.35
2022-08-05T22:00:02.060Z,2.25
2022-08-05T22:02:39.779Z,3.22
2022-08-05T22:05:09.317Z,2.80
2022-08-05T22:07:39.851Z,2.50
2022-08-05T22:10:26.718Z,4.40
2022-08-05T22:12:55.491Z,2.20
2022-08-05T22:16:00.481Z,3.58
2022-08-05T22:18:11.539Z,1.98
2022-08-05T22:20:39.839Z,4.10
2022-08-05T22:24:03.227Z,4.00
2022-08-05T22:26:31.409Z,3.38
2022-08-05T22:29:00.791Z,3.17
2022-08-05T22:31:29.973Z,2.65
2022-08-05T22:34:01.168Z,2.78
2022-08-05T22:36:29.323Z,4.53
2022-08-05T22:38:56.835Z,2.40
2022-08-05T22:42:04.200Z,4.47
2022-08-05T22:44:12.048Z,2.60
2022-08-05T22:46:40.719Z,4.22
2022-08-05T22:49:23.139Z,3.00
2022-08-05T22:52:05.693Z,4.45
2022-08-05T22:54:33.809Z,2.60
2022-08-05T22:57:00.582Z,3.40
2022-08-05T22:59:46.387Z,5.80
2022-08-05T23:02:16.728Z,3.45
2022-08-05T23:04:51.920Z,2.90
2022-08-05T23:07:22.014Z,2.40
2022-08-05T23:09:57.578Z,5.35
2022-08-05T23:12:32.469Z,2.70
2022-08-05T23:17:34.267Z,2.25
2022-08-05T23:20:17.055Z,2.97
2022-08-05T23:22:48.593Z,2.92
2022-08-05T23:25:52.100Z,3.73
2022-08-05T23:28:07.648Z,4.88
2022-08-05T23:30:40.428Z,1.83
2022-08-05T23:33:16.128Z,2.92
2022-08-05T23:35:50.873Z,3.30
2022-08-05T23:38:18.391Z,3.67
2022-08-05T23:40:49.564Z,3.15
2022-08-05T23:43:25.635Z,2.97
2022-08-05T23:46:19.754Z,2.85
2022-08-05T23:48:59.912Z,3.28
2022-08-05T23:51:53.587Z,2.50
2022-08-05T23:54:33.883Z,5.10
2022-08-05T23:57:04.789Z,3.15
